createdAt,value
2019-01-27T00:06:02.661Z,37.50
2019-01-27T00:36:13.429Z,31.10
2019-01-27T01:06:21.408Z,31.80
2019-01-27T01:36:27.802Z,27.40
2019-01-27T02:06:33.960Z,36.70
2019-01-27T02:36:40.361Z,21.70
2019-01-27T03:07:00.485Z,22.80
2019-01-27T03:37:06.818Z,15.90
2019-01-27T04:07:13.094Z,25.47
2019-01-27T04:37:19.573Z,20.60
2019-01-27T05:07:25.749Z,38.83
2019-01-27T05:37:32.018Z,19.67
2019-01-27T06:07:38.155Z,22.10
2019-01-27T06:37:44.482Z,31.00
2019-01-27T07:08:03.449Z,26.17
2019-01-27T07:38:16.774Z,53.47
2019-01-27T08:08:34.264Z,49.33
2019-01-27T08:38:57.273Z,42.83
2019-01-27T09:09:26.049Z,72.30
2019-01-27T09:39:51.238Z,109.47
2019-01-27T10:10:15.682Z,75.20
2019-01-27T10:40:39.672Z,49.07
2019-01-27T11:11:05.254Z,62.73
2019-01-27T11:41:39.543Z,56.10
2019-01-27T12:11:46.354Z,63.47
2019-01-27T12:41:52.793Z,32.37
2019-01-27T13:11:59.125Z,66.07
2019-01-27T13:42:07.692Z,105.70
2019-01-27T14:12:14.037Z,53.17
2019-01-27T14:42:20.222Z,86.37
2019-01-27T15:12:26.701Z,102.90
2019-01-27T15:42:35.061Z,85.13
2019-01-27T16:12:41.264Z,74.47
2019-01-27T16:42:47.695Z,89.73
2019-01-27T17:12:54.101Z,60.10
2019-01-27T17:43:00.335Z,114.37
2019-01-27T18:13:24.529Z,69.60
2019-01-27T18:43:30.972Z,81.83
2019-01-27T19:13:56.170Z,49.10
2019-01-27T19:44:18.603Z,42.25
2019-01-27T20:14:42.427Z,33.30
2019-01-27T20:45:06.171Z,32.87
2019-01-27T21:15:23.146Z,28.30
2019-01-27T21:45:29.374Z,28.63
2019-01-27T22:15:35.564Z,24.43
2019-01-27T22:45:42.045Z,19.33
2019-01-27T23:15:48.302Z,23.80
2019-01-27T23:45:54.438Z,21.33
